createdAt,value
2017-07-12T20:23:07.573Z,43.80
2017-07-12T20:25:35.090Z,44.50
2017-07-12T20:28:02.607Z,44.70
2017-07-12T20:30:30.110Z,44.60
2017-07-12T20:32:57.652Z,44.90
2017-07-12T20:35:23.812Z,45.10
2017-07-12T20:37:50.090Z,45.40
2017-07-12T20:40:16.196Z,45.60
2017-07-12T20:42:42.454Z,45.80
2017-07-12T20:45:08.540Z,45.90
2017-07-12T20:47:34.739Z,46.10
2017-07-12T20:50:00.947Z,46.40
2017-07-12T20:52:27.051Z,46.40
2017-07-12T20:54:53.134Z,46.50
2017-07-12T20:57:19.254Z,46.60
2017-07-12T20:59:45.519Z,46.60
2017-07-12T21:02:11.603Z,46.70
2017-07-12T21:04:37.806Z,46.80
2017-07-12T21:07:03.894Z,46.80
2017-07-12T21:09:30.058Z,47.00
2017-07-12T21:11:56.246Z,47.00
2017-07-12T21:14:22.499Z,46.90
2017-07-12T21:16:48.588Z,46.90
2017-07-12T21:19:14.715Z,46.80
2017-07-12T21:21:40.814Z,46.80
2017-07-12T21:24:06.921Z,46.80
2017-07-12T21:26:33.227Z,46.80
2017-07-12T21:28:59.363Z,46.70
2017-07-12T21:31:25.453Z,46.70
2017-07-12T21:33:51.668Z,46.80
2017-07-12T21:36:17.934Z,46.80
2017-07-12T21:38:44.159Z,46.80
2017-07-12T21:41:10.246Z,46.80
2017-07-12T21:43:36.526Z,46.80
2017-07-12T21:46:02.616Z,46.80
2017-07-12T21:48:28.739Z,46.90
2017-07-12T21:50:54.835Z,47.00
2017-07-12T21:53:39.250Z,47.00
2017-07-12T21:56:23.635Z,47.00
2017-07-12T21:59:08.154Z,46.90
2017-07-12T22:01:52.710Z,46.90
2017-07-12T22:04:37.311Z,46.90
2017-07-12T22:07:22.126Z,46.90
2017-07-12T22:10:06.538Z,46.90
2017-07-12T22:12:51.034Z,46.90
2017-07-12T22:15:35.650Z,46.80
2017-07-12T22:18:20.103Z,46.80
2017-07-12T22:21:04.745Z,46.70
2017-07-12T22:23:49.231Z,46.70
2017-07-12T22:26:33.725Z,46.80
2017-07-12T22:29:18.083Z,46.80
2017-07-12T22:32:02.674Z,46.80
2017-07-12T22:34:47.195Z,46.80
2017-07-12T22:37:19.499Z,46.80
2017-07-12T22:39:51.554Z,46.80
2017-07-12T22:42:23.790Z,46.80
2017-07-12T22:44:49.907Z,46.80
2017-07-12T22:47:16.027Z,46.80
2017-07-12T22:49:42.108Z,47.30
2017-07-12T22:52:08.214Z,46.70
2017-07-12T22:54:34.329Z,46.90
2017-07-12T22:57:00.418Z,46.90
2017-07-12T22:59:26.535Z,46.90
2017-07-12T23:01:52.643Z,46.80
2017-07-12T23:04:18.779Z,46.80
2017-07-12T23:06:44.960Z,46.80
2017-07-12T23:09:11.071Z,46.80
2017-07-12T23:11:37.208Z,46.80
2017-07-12T23:14:03.346Z,46.60
2017-07-12T23:16:29.440Z,46.50
2017-07-12T23:18:55.555Z,46.50
2017-07-12T23:21:21.719Z,46.50
2017-07-12T23:23:47.830Z,46.50
2017-07-12T23:26:13.940Z,46.40
2017-07-12T23:28:40.059Z,46.40
2017-07-12T23:31:06.165Z,46.40
2017-07-12T23:33:32.385Z,46.50
2017-07-12T23:35:58.567Z,46.50
2017-07-12T23:38:24.656Z,46.50
2017-07-12T23:40:50.975Z,46.50
2017-07-12T23:43:17.160Z,46.50
2017-07-12T23:45:43.275Z,46.50
2017-07-12T23:48:09.371Z,46.50
2017-07-12T23:50:35.543Z,46.40
2017-07-12T23:53:01.659Z,46.40
2017-07-12T23:55:27.810Z,46.50
2017-07-12T23:57:53.912Z,46.60
